Time;durP1;ratioP1;P1;durP2;ratioP2;P2;SDS_P1;SDS_P2;PMS_P1;PMS_P2;Temp;Humidity;BMP_temperature;BMP_pressure;BME280_temperature;BME280_humidity;BME280_pressure;Samples;Min_cycle;Max_cycle;Signal;HPM_P1;HPM_P2
2022/07/06 00:02:06;;;;;;;23.60;12.60;;;;;;;23.38;61.78;99328.02;107208;1277;22461;-60
2022/07/06 00:04:32;;;;;;;22.30;13.00;;;;;;;23.36;61.78;99322.70;107053;1277;140922;-59
2022/07/06 00:06:59;;;;;;;10.10;7.60;;;;;;;23.37;61.99;99323.55;107227;1276;22821;-59
2022/07/06 00:09:26;;;;;;;9.60;6.40;;;;;;;23.36;62.12;99320.33;107197;1277;22484;-59
2022/07/06 00:11:53;;;;;;;8.10;5.80;;;;;;;23.38;62.14;99318.80;107153;1277;139584;-59
2022/07/06 00:14:20;;;;;;;7.60;6.40;;;;;;;23.39;62.28;99323.83;107183;1277;22504;-59
2022/07/06 00:16:47;;;;;;;14.80;8.00;;;;;;;23.40;62.33;99318.85;104962;1278;139199;-54
2022/07/06 00:19:14;;;;;;;9.00;6.70;;;;;;;23.41;62.47;99316.59;103910;1277;22730;-59
2022/07/06 00:21:41;;;;;;;10.80;7.50;;;;;;;23.39;62.61;99315.41;103885;1277;22587;-59
2022/07/06 00:24:08;;;;;;;16.00;8.50;;;;;;;23.39;62.75;99318.42;103877;1274;139567;-59
2022/07/06 00:26:34;;;;;;;11.70;8.30;;;;;;;23.39;62.75;99313.98;104058;1277;23773;-59
2022/07/06 00:29:01;;;;;;;12.70;7.10;;;;;;;23.39;62.74;99317.64;103784;1277;139196;-59
2022/07/06 00:31:28;;;;;;;9.80;8.10;;;;;;;23.38;62.52;99311.39;103848;1276;24367;-59
2022/07/06 00:33:55;;;;;;;14.80;9.80;;;;;;;23.38;62.64;99318.09;103737;1277;22607;-59
2022/07/06 00:36:22;;;;;;;16.20;8.90;;;;;;;23.37;62.40;99317.35;103709;1277;139179;-59
2022/07/06 00:38:49;;;;;;;16.70;9.70;;;;;;;23.33;62.38;99311.67;103657;1277;24536;-59
2022/07/06 00:41:16;;;;;;;16.90;9.40;;;;;;;23.33;62.38;99313.88;103775;1277;139529;-60
2022/07/06 00:43:57;;;;;;;16.20;8.30;;;;;;;23.34;62.46;99319.16;103701;1277;22790;-59
2022/07/06 00:46:30;;;;;;;12.60;8.30;;;;;;;23.33;62.46;99315.79;103851;1277;22589;-60
2022/07/06 00:48:57;;;;;;;10.10;7.30;;;;;;;23.31;62.25;99312.71;107097;1277;22494;-61
2022/07/06 00:51:32;;;;;;;12.60;6.40;;;;;;;23.31;62.27;99314.70;107211;1277;23713;-60
2022/07/06 00:54:00;;;;;;;7.40;5.80;;;;;;;23.31;62.34;99313.98;107112;1276;138727;-61
2022/07/06 00:56:29;;;;;;;6.50;5.70;;;;;;;23.30;62.38;99313.31;107080;1277;23182;-60
2022/07/06 00:58:56;;;;;;;7.00;6.00;;;;;;;23.30;62.11;99313.39;107145;1277;140308;-61
2022/07/06 01:01:23;;;;;;;5.80;5.30;;;;;;;23.28;61.80;99313.40;107040;1277;22403;-60
2022/07/06 01:03:50;;;;;;;7.90;6.10;;;;;;;23.28;61.66;99311.66;107173;1277;22406;-60
2022/07/06 01:06:17;;;;;;;5.80;5.30;;;;;;;23.27;61.51;99310.34;107131;1277;138377;-60
2022/07/06 01:08:44;;;;;;;6.60;5.90;;;;;;;23.27;61.35;99306.21;107282;1276;22399;-60
2022/07/06 01:11:11;;;;;;;7.70;5.50;;;;;;;23.27;61.34;99309.31;107005;1275;137364;-60
2022/07/06 01:13:38;;;;;;;6.50;5.30;;;;;;;23.25;61.07;99303.63;107237;1277;23509;-59
2022/07/06 01:16:05;;;;;;;6.60;5.90;;;;;;;23.24;61.02;99304.61;107026;1276;24443;-59
2022/07/06 01:18:32;;;;;;;9.50;6.40;;;;;;;23.24;60.86;99307.55;106994;1277;138647;-59
2022/07/06 01:21:10;;;;;;;7.10;6.20;;;;;;;23.24;60.98;99311.11;107048;1277;22511;-59
2022/07/06 01:23:46;;;;;;;9.50;6.70;;;;;;;23.22;60.86;99306.53;106990;1277;138078;-59
2022/07/06 01:26:18;;;;;;;6.80;6.20;;;;;;;23.22;61.00;99307.00;107221;1277;23219;-60
2022/07/06 01:28:46;;;;;;;6.50;5.90;;;;;;;23.21;61.03;99307.79;107191;1277;138596;-59
2022/07/06 01:31:18;;;;;;;7.20;6.00;;;;;;;23.20;61.02;99307.50;107313;1276;23633;-59
2022/07/06 01:33:46;;;;;;;8.10;5.90;;;;;;;23.18;60.98;99306.39;107235;1277;22407;-59
2022/07/06 01:36:13;;;;;;;7.70;5.80;;;;;;;23.16;61.00;99304.17;107154;1276;138385;-60
2022/07/06 01:38:47;;;;;;;7.10;5.70;;;;;;;23.13;60.92;99299.40;107124;1277;22485;-60
2022/07/06 01:41:14;;;;;;;10.60;6.40;;;;;;;23.12;60.81;99295.46;106953;1277;139647;-59
2022/07/06 01:43:41;;;;;;;7.80;6.60;;;;;;;23.10;60.53;99290.88;106341;1276;1012667;-60
2022/07/06 01:47:16;;;;;;;9.20;6.90;;;;;;;23.11;60.10;99294.65;100964;1311;546075;-61
2022/07/06 01:49:43;;;;;;;7.70;6.60;;;;;;;23.06;59.98;99290.77;102635;1290;25756;-61
2022/07/06 01:52:10;;;;;;;7.50;6.00;;;;;;;23.07;59.55;99296.92;102612;1289;22594;-59
2022/07/06 01:54:37;;;;;;;6.00;5.40;;;;;;;23.05;59.35;99301.77;102373;1290;137626;-61
2022/07/06 01:57:04;;;;;;;6.40;5.50;;;;;;;23.05;59.18;99303.58;102479;1289;22588;-61
2022/07/06 01:59:31;;;;;;;6.50;5.10;;;;;;;23.05;59.07;99303.04;102611;1289;137441;-61
2022/07/06 02:01:58;;;;;;;6.10;5.50;;;;;;;23.07;59.16;99306.27;102784;1287;221403;-60
2022/07/06 02:04:25;;;;;;;8.40;6.00;;;;;;;23.07;58.86;99304.30;102830;1286;22820;-60
2022/07/06 02:06:52;;;;;;;7.60;5.90;;;;;;;23.06;58.84;99302.29;102753;1287;136666;-60
2022/07/06 02:09:19;;;;;;;5.80;5.20;;;;;;;23.05;58.88;99297.10;102804;1287;22612;-60
2022/07/06 02:11:46;;;;;;;6.60;5.50;;;;;;;23.03;59.05;99294.24;102935;1287;137442;-60
2022/07/06 02:14:14;;;;;;;7.70;6.80;;;;;;;23.02;59.30;99293.55;102810;1288;24083;-60
2022/07/06 02:16:41;;;;;;;10.50;6.00;;;;;;;22.99;59.36;99290.92;103370;1281;140451;-60
2022/07/06 02:19:08;;;;;;;8.60;6.10;;;;;;;22.97;59.58;99290.28;103409;1281;22614;-60
2022/07/06 02:21:35;;;;;;;6.30;5.60;;;;;;;22.97;59.48;99291.37;103526;1280;22721;-60
2022/07/06 02:24:02;;;;;;;6.70;6.00;;;;;;;22.95;59.35;99287.34;103416;1280;137851;-60
2022/07/06 02:26:29;;;;;;;7.10;5.70;;;;;;;22.93;59.16;99293.89;103464;1282;24269;-60
2022/07/06 02:28:57;;;;;;;6.70;6.00;;;;;;;22.92;59.03;99293.63;103263;1281;138365;-60
2022/07/06 02:31:23;;;;;;;10.70;6.10;;;;;;;22.92;58.97;99292.91;103359;1281;24974;-61
2022/07/06 02:33:50;;;;;;;9.70;6.20;;;;;;;22.93;59.02;99291.73;103546;1281;22600;-61
2022/07/06 02:36:17;;;;;;;6.20;5.60;;;;;;;22.91;59.20;99290.27;103473;1280;138056;-61
2022/07/06 02:38:44;;;;;;;12.00;6.60;;;;;;;22.92;59.19;99291.41;103550;1280;27339;-60
2022/07/06 02:41:11;;;;;;;7.70;6.00;;;;;;;22.92;59.36;99288.70;103407;1279;138918;-60
2022/07/06 02:43:39;;;;;;;8.60;5.80;;;;;;;22.92;59.33;99290.69;103203;1281;23286;-60
2022/07/06 02:46:06;;;;;;;8.10;6.50;;;;;;;22.91;59.33;99290.42;103549;1280;22732;-60
2022/07/06 02:48:33;;;;;;;7.30;6.60;;;;;;;22.92;59.44;99289.81;103332;1280;140076;-60
2022/07/06 02:51:00;;;;;;;8.10;6.10;;;;;;;22.89;59.60;99290.13;103516;1283;22529;-60
2022/07/06 02:53:28;;;;;;;8.10;6.60;;;;;;;22.90;59.54;99288.81;103426;1280;137612;-60
2022/07/06 02:55:55;;;;;;;6.70;5.90;;;;;;;22.89;59.40;99290.13;103605;1281;22580;-59
2022/07/06 02:58:22;;;;;;;8.50;6.10;;;;;;;22.89;59.26;99288.36;103633;1280;24304;-59
2022/07/06 03:00:50;;;;;;;6.60;5.90;;;;;;;22.89;59.26;99289.48;103507;1281;139190;-59
2022/07/06 03:03:17;;;;;;;6.90;6.10;;;;;;;22.89;59.44;99290.20;103422;1282;22603;-59
2022/07/06 03:05:46;;;;;;;6.70;6.00;;;;;;;22.88;59.78;99292.23;103559;1281;138167;-61
2022/07/06 03:08:14;;;;;;;8.70;5.90;;;;;;;22.89;59.78;99291.92;103606;1280;22583;-59
2022/07/06 03:10:42;;;;;;;8.00;6.50;;;;;;;22.87;59.96;99285.28;103520;1280;138893;-59
2022/07/06 03:13:09;;;;;;;8.30;6.10;;;;;;;22.87;60.18;99288.45;103693;1276;23383;-60
2022/07/06 03:15:36;;;;;;;8.10;6.50;;;;;;;22.85;60.14;99287.48;103891;1277;25010;-59
2022/07/06 03:18:03;;;;;;;6.40;5.70;;;;;;;22.84;60.13;99286.19;103668;1277;138624;-60
2022/07/06 03:20:30;;;;;;;7.20;5.50;;;;;;;22.84;59.86;99285.56;103783;1276;24914;-60
2022/07/06 03:22:58;;;;;;;12.20;5.40;;;;;;;22.85;59.61;99286.58;103651;1279;138738;-60
2022/07/06 03:25:25;;;;;;;12.40;5.80;;;;;;;22.88;59.35;99292.13;103606;1280;23298;-61
2022/07/06 03:27:52;;;;;;;5.90;5.10;;;;;;;22.89;59.35;99287.71;103951;1277;24278;-61
2022/07/06 03:30:20;;;;;;;8.60;5.50;;;;;;;22.95;59.29;99289.42;103826;1276;138244;-61
2022/07/06 03:32:51;;;;;;;6.90;6.20;;;;;;;22.97;59.13;99289.58;103779;1276;23492;-61
2022/07/06 03:35:18;;;;;;;5.80;5.20;;;;;;;23.01;58.84;99289.55;103608;1277;138285;-61
2022/07/06 03:37:47;;;;;;;6.50;5.10;;;;;;;23.05;58.66;99292.14;103798;1278;24432;-61
2022/07/06 03:40:14;;;;;;;8.10;5.80;;;;;;;23.08;58.28;99291.30;103898;1277;24591;-61
2022/07/06 03:42:42;;;;;;;5.20;4.60;;;;;;;23.10;57.94;99291.52;103800;1276;139460;-61
2022/07/06 03:45:10;;;;;;;6.10;4.80;;;;;;;23.15;57.25;99293.98;103929;1277;22603;-61
2022/07/06 03:47:38;;;;;;;9.00;5.40;;;;;;;23.18;57.03;99289.83;103813;1276;138979;-61
2022/07/06 03:50:07;;;;;;;6.30;5.10;;;;;;;23.25;56.79;99290.73;103816;1279;24071;-61
2022/07/06 03:52:35;;;;;;;6.20;4.60;;;;;;;23.30;56.58;99286.23;107187;1276;139102;-61
2022/07/06 03:55:02;;;;;;;8.80;4.60;;;;;;;23.39;56.29;99286.33;106987;1278;22429;-61
2022/07/06 03:57:30;;;;;;;5.90;4.40;;;;;;;23.48;55.87;99283.93;107234;1276;22441;-60
2022/07/06 03:59:58;;;;;;;5.30;4.70;;;;;;;23.55;55.46;99283.86;106934;1279;138711;-60
2022/07/06 04:02:26;;;;;;;7.80;4.70;;;;;;;23.64;55.19;99284.45;107074;1278;24581;-60
2022/07/06 04:04:54;;;;;;;5.60;4.60;;;;;;;23.68;54.82;99281.73;106871;1279;138758;-60
2022/07/06 04:07:21;;;;;;;6.00;4.60;;;;;;;23.74;54.90;99283.42;107106;1278;22415;-59
2022/07/06 04:09:48;;;;;;;7.70;4.60;;;;;;;23.78;54.96;99281.95;107037;1278;22464;-59
2022/07/06 04:12:15;;;;;;;6.40;5.20;;;;;;;23.82;54.94;99275.84;106935;1279;138331;-60
2022/07/06 04:14:43;;;;;;;5.00;4.40;;;;;;;23.85;54.80;99271.19;107027;1279;22510;-59
2022/07/06 04:19:56;;;;;;;5.30;4.20;;;;;;;23.93;53.77;99260.15;107054;1279;24001;-60
2022/07/06 04:22:23;;;;;;;9.70;4.10;;;;;;;24.00;53.58;99263.51;107081;1279;24211;-59
2022/07/06 04:24:50;;;;;;;5.20;4.70;;;;;;;24.06;53.61;99264.01;106940;1279;138678;-59
2022/07/06 04:27:17;;;;;;;19.60;5.20;;;;;;;24.12;53.66;99262.80;107107;1276;23176;-60
2022/07/06 04:29:44;;;;;;;9.00;5.00;;;;;;;24.18;53.18;99263.95;107060;1276;139120;-59
2022/07/06 04:32:11;;;;;;;4.60;4.20;;;;;;;24.24;53.16;99260.09;107091;1278;23627;-59
2022/07/06 04:34:38;;;;;;;5.30;4.80;;;;;;;24.32;52.90;99258.89;107071;1276;138577;-59
2022/07/06 04:37:05;;;;;;;7.00;4.60;;;;;;;24.39;52.81;99257.94;107268;1277;22595;-61
2022/07/06 04:39:32;;;;;;;10.40;5.00;;;;;;;24.46;52.95;99254.73;107267;1277;23168;-61
2022/07/06 04:41:59;;;;;;;4.50;4.00;;;;;;;24.52;52.57;99254.73;107224;1277;138398;-60
2022/07/06 04:44:27;;;;;;;6.30;4.60;;;;;;;24.60;52.27;99252.73;107264;1279;22475;-60
2022/07/06 04:46:54;;;;;;;6.90;4.30;;;;;;;24.68;52.21;99252.55;106988;1278;138960;-60
2022/07/06 04:49:21;;;;;;;10.50;4.90;;;;;;;24.77;52.07;99248.64;107036;1279;22477;-61
2022/07/06 04:51:48;;;;;;;10.60;7.10;;;;;;;24.86;51.21;99245.27;107134;1276;24164;-60
2022/07/06 04:54:16;;;;;;;11.30;7.70;;;;;;;24.93;51.18;99242.45;107091;1277;139082;-60
2022/07/06 04:56:43;;;;;;;11.30;7.20;;;;;;;25.01;50.44;99237.95;107054;1276;23636;-61
2022/07/06 04:59:10;;;;;;;9.40;5.50;;;;;;;25.10;50.74;99241.20;107170;1276;137938;-61
2022/07/06 05:01:37;;;;;;;9.60;4.50;;;;;;;25.17;50.50;99242.89;107052;1279;22721;-61
2022/07/06 05:04:04;;;;;;;5.20;4.40;;;;;;;25.24;49.94;99236.77;107266;1276;23097;-60
2022/07/06 05:06:31;;;;;;;6.20;4.60;;;;;;;25.31;50.07;99236.11;107084;1276;138511;-59
2022/07/06 05:09:01;;;;;;;10.30;4.50;;;;;;;25.42;49.83;99240.43;107120;1276;22484;-60
2022/07/06 05:11:28;;;;;;;6.40;4.70;;;;;;;25.50;49.77;99233.14;107061;1277;139930;-59
2022/07/06 05:13:56;;;;;;;6.70;4.00;;;;;;;25.60;50.27;99233.38;107046;1279;22466;-59
2022/07/06 05:16:23;;;;;;;4.60;4.10;;;;;;;25.71;50.04;99236.18;107198;1277;22514;-60
2022/07/06 05:18:50;;;;;;;5.00;4.50;;;;;;;25.81;49.71;99235.11;107077;1276;140467;-59
2022/07/06 05:21:18;;;;;;;5.30;4.80;;;;;;;25.94;49.84;99240.41;107199;1276;22443;-60
2022/07/06 05:23:45;;;;;;;8.60;5.10;;;;;;;26.13;49.36;99239.68;106934;1279;138310;-59
2022/07/06 05:26:12;;;;;;;15.40;6.20;;;;;;;26.36;48.58;99236.34;107181;1277;22520;-60
2022/07/06 05:28:39;;;;;;;11.50;5.90;;;;;;;26.63;48.26;99234.84;107178;1275;139414;-60
2022/07/06 05:31:08;;;;;;;8.10;5.40;;;;;;;26.95;47.97;99237.08;107112;1276;22445;-60
2022/07/06 05:33:35;;;;;;;7.00;5.10;;;;;;;27.32;47.54;99238.64;107215;1276;22446;-60
2022/07/06 05:36:02;;;;;;;7.40;4.30;;;;;;;27.71;46.88;99233.86;107304;1276;137524;-54
2022/07/06 05:38:30;;;;;;;6.10;5.00;;;;;;;28.14;45.74;99230.98;107086;1277;22395;-61
2022/07/06 05:40:57;;;;;;;25.20;5.60;;;;;;;28.53;44.95;99231.74;107107;1277;139219;-61
2022/07/06 05:43:25;;;;;;;8.30;4.90;;;;;;;28.94;44.23;99241.77;107133;1277;22462;-61
2022/07/06 05:45:52;;;;;;;4.60;4.20;;;;;;;29.30;43.66;99242.39;107080;1276;22505;-61
2022/07/06 05:51:06;;;;;;;6.60;4.00;;;;;;;30.01;42.47;99229.82;107262;1277;23572;-61
2022/07/06 05:53:33;;;;;;;6.40;4.50;;;;;;;30.23;41.70;99227.67;107294;1277;139125;-61
2022/07/06 05:56:00;;;;;;;4.90;4.00;;;;;;;30.36;41.24;99224.41;107055;1278;22474;-61
2022/07/06 05:58:29;;;;;;;4.40;3.80;;;;;;;30.48;40.97;99219.45;106985;1278;137365;-60
2022/07/06 06:00:57;;;;;;;5.20;3.90;;;;;;;30.56;40.90;99215.98;107101;1279;22511;-60
2022/07/06 06:03:24;;;;;;;5.10;4.30;;;;;;;30.58;41.02;99214.13;107104;1277;22596;-60
2022/07/06 06:05:51;;;;;;;4.50;4.10;;;;;;;30.53;41.05;99205.34;106231;1277;139578;-60
2022/07/06 06:08:19;;;;;;;7.60;4.20;;;;;;;30.49;40.37;99200.73;103734;1278;25421;-59
2022/07/06 06:10:46;;;;;;;4.90;4.50;;;;;;;30.40;40.61;99196.95;103772;1276;138932;-60
2022/07/06 06:13:15;;;;;;;5.20;4.40;;;;;;;30.26;40.93;99196.84;103668;1277;22897;-60
2022/07/06 06:15:43;;;;;;;8.70;4.30;;;;;;;30.16;41.12;99197.20;103812;1277;22575;-60
2022/07/06 06:18:10;;;;;;;7.40;4.70;;;;;;;30.08;41.61;99199.84;103645;1277;137976;-60
2022/07/06 06:20:37;;;;;;;8.20;4.20;;;;;;;29.99;41.79;99193.22;103466;1279;23897;-59
2022/07/06 06:23:04;;;;;;;6.50;3.90;;;;;;;29.89;42.11;99189.06;103677;1276;138932;-59
2022/07/06 06:25:35;;;;;;;8.30;4.50;;;;;;;29.80;41.66;99188.06;103562;1279;22571;-59
2022/07/06 06:28:03;;;;;;;9.80;4.70;;;;;;;29.73;42.20;99182.98;103586;1277;22588;-59
2022/07/06 06:30:30;;;;;;;10.10;4.10;;;;;;;29.65;42.00;99184.46;103674;1277;138893;-59
2022/07/06 06:33:17;;;;;;;5.50;4.30;;;;;;;29.58;41.87;99185.55;103748;1277;22600;-59
2022/07/06 06:35:45;;;;;;;9.90;4.10;;;;;;;29.51;41.45;99183.60;103634;1280;138726;-59
2022/07/06 06:38:12;;;;;;;4.80;3.90;;;;;;;29.42;41.28;99180.34;103659;1279;24182;-59
2022/07/06 06:40:39;;;;;;;5.30;4.30;;;;;;;29.36;41.40;99176.02;103854;1280;137914;-60
2022/07/06 06:43:06;;;;;;;11.60;4.40;;;;;;;29.30;41.85;99177.51;104005;1276;23982;-61
2022/07/06 06:45:36;;;;;;;7.00;4.40;;;;;;;29.24;42.19;99176.91;103877;1277;22572;-60
2022/07/06 06:48:04;;;;;;;8.50;4.00;;;;;;;29.20;42.85;99174.64;103855;1277;139526;-60
2022/07/06 06:50:31;;;;;;;7.20;4.30;;;;;;;29.18;42.01;99174.14;103928;1277;22719;-59
2022/07/06 06:52:57;;;;;;;6.10;4.30;;;;;;;29.15;42.00;99170.27;103578;1277;139430;-61
2022/07/06 06:55:25;;;;;;;6.00;3.50;;;;;;;29.14;41.70;99163.53;103712;1280;22862;-61
2022/07/06 06:57:52;;;;;;;6.80;3.80;;;;;;;29.14;41.90;99162.96;103852;1277;22764;-61
2022/07/06 07:00:19;;;;;;;8.20;3.80;;;;;;;29.13;42.26;99163.30;103549;1277;140919;-61
2022/07/06 07:02:47;;;;;;;6.90;3.50;;;;;;;29.12;41.92;99164.02;103666;1277;24309;-62
2022/07/06 07:05:14;;;;;;;7.00;4.00;;;;;;;29.09;41.74;99163.84;103831;1277;137483;-62
2022/07/06 07:07:41;;;;;;;10.10;4.00;;;;;;;29.09;41.65;99161.42;103866;1277;22779;-63
2022/07/06 07:10:08;;;;;;;5.00;4.20;;;;;;;29.09;41.87;99163.50;103891;1278;23250;-60
2022/07/06 07:12:35;;;;;;;5.30;3.90;;;;;;;29.08;41.76;99165.27;103814;1277;138982;-61
2022/07/06 07:15:02;;;;;;;5.30;4.00;;;;;;;29.08;42.22;99170.71;103826;1280;25236;-61
2022/07/06 07:17:29;;;;;;;5.80;4.70;;;;;;;29.06;42.62;99165.65;103849;1277;138362;-60
2022/07/06 07:19:57;;;;;;;4.90;4.50;;;;;;;29.02;42.71;99164.02;103768;1277;24157;-60
2022/07/06 07:22:24;;;;;;;6.90;4.00;;;;;;;29.01;42.81;99163.60;103917;1277;22573;-63
2022/07/06 07:24:51;;;;;;;4.30;3.70;;;;;;;29.01;43.39;99157.27;103592;1279;137283;-61
2022/07/06 07:27:18;;;;;;;11.40;4.90;;;;;;;29.04;42.45;99156.00;103842;1277;24601;-59
2022/07/06 07:29:45;;;;;;;9.10;4.30;;;;;;;29.06;43.00;99152.98;103802;1277;138733;-59
2022/07/06 07:32:12;;;;;;;5.70;4.50;;;;;;;29.08;43.42;99151.96;103635;1280;22555;-60
2022/07/06 07:34:39;;;;;;;4.80;4.00;;;;;;;29.10;43.28;99151.90;103543;1277;137701;-60
2022/07/06 07:37:05;;;;;;;6.40;3.90;;;;;;;29.10;43.35;99149.64;103680;1278;23941;-60
2022/07/06 07:39:32;;;;;;;11.30;5.60;;;;;;;29.07;43.28;99155.55;103784;1278;22628;-60
2022/07/06 07:41:59;;;;;;;7.30;4.00;;;;;;;29.08;43.83;99154.11;103502;1278;138295;-60
2022/07/06 07:44:27;;;;;;;8.60;3.90;;;;;;;29.11;43.65;99158.63;103809;1277;22713;-60
2022/07/06 07:46:54;;;;;;;4.90;4.40;;;;;;;29.14;43.16;99151.52;103846;1276;137517;-61
2022/07/06 07:49:21;;;;;;;5.70;4.40;;;;;;;29.16;43.10;99148.30;103772;1278;22566;-60
2022/07/06 07:51:48;;;;;;;7.50;4.30;;;;;;;29.19;44.42;99147.92;103768;1277;22891;-61
2022/07/06 07:54:15;;;;;;;8.30;4.90;;;;;;;29.22;45.04;99151.64;103508;1279;137729;-61
2022/07/06 07:56:42;;;;;;;12.80;4.80;;;;;;;29.23;44.53;99150.05;103695;1280;24218;-60
2022/07/06 07:59:09;;;;;;;14.80;4.70;;;;;;;29.27;44.30;99146.39;103531;1278;138403;-61
2022/07/06 08:01:37;;;;;;;13.00;4.20;;;;;;;29.31;44.59;99149.11;103707;1278;24299;-60
2022/07/06 08:04:04;;;;;;;5.20;4.10;;;;;;;29.36;42.95;99151.64;103748;1278;22969;-61
2022/07/06 08:06:31;;;;;;;6.40;3.90;;;;;;;29.40;42.44;99154.59;103839;1276;140499;-61
2022/07/06 08:08:58;;;;;;;4.30;3.80;;;;;;;29.43;42.88;99149.55;103933;1277;24180;-61
2022/07/06 08:11:25;;;;;;;8.70;4.30;;;;;;;29.46;42.99;99152.92;103702;1276;139755;-61
2022/07/06 08:13:52;;;;;;;4.10;3.80;;;;;;;29.52;41.75;99152.96;103817;1277;22732;-60
2022/07/06 08:16:18;;;;;;;6.00;4.70;;;;;;;29.57;41.78;99152.17;103919;1277;22997;-61
2022/07/06 08:18:45;;;;;;;4.40;3.50;;;;;;;29.61;41.73;99147.38;103760;1277;137668;-60
2022/07/06 08:21:12;;;;;;;5.60;4.10;;;;;;;29.67;41.52;99146.85;103916;1277;22891;-61
2022/07/06 08:23:55;;;;;;;12.60;10.70;;;;;;;29.73;41.95;99141.41;103999;1277;139090;-62
2022/07/06 08:26:22;;;;;;;13.10;7.50;;;;;;;29.77;42.30;99140.61;103835;1278;24098;-62
2022/07/06 08:28:50;;;;;;;4.70;4.10;;;;;;;29.79;42.33;99143.29;103711;1277;137703;-61
2022/07/06 08:31:17;;;;;;;50.60;45.30;;;;;;;29.83;41.60;99137.77;107034;1278;25273;-62
2022/07/06 08:34:04;;;;;;;8.00;6.30;;;;;;;29.87;42.32;99136.71;107232;1277;22418;-62
2022/07/06 08:36:31;;;;;;;8.70;4.20;;;;;;;29.90;42.68;99133.84;107440;1276;138938;-62
2022/07/06 08:38:58;;;;;;;11.10;4.30;;;;;;;29.94;42.64;99135.87;107530;1277;23061;-62
2022/07/06 08:41:26;;;;;;;7.60;4.00;;;;;;;29.97;42.23;99132.21;107147;1278;139254;-62
2022/07/06 08:43:53;;;;;;;4.30;3.90;;;;;;;30.00;42.43;99125.41;107455;1277;22432;-62
2022/07/06 08:46:20;;;;;;;4.50;3.30;;;;;;;30.01;41.66;99128.60;107498;1277;23015;-62
2022/07/06 08:48:48;;;;;;;9.10;4.20;;;;;;;30.04;40.88;99125.71;107293;1277;139363;-65
2022/07/06 08:51:15;;;;;;;5.60;3.60;;;;;;;30.08;40.83;99123.41;107107;1278;22422;-63
2022/07/06 08:53:43;;;;;;;6.10;3.50;;;;;;;30.11;41.64;99127.36;107120;1277;139247;-62
2022/07/06 08:56:10;;;;;;;9.90;4.00;;;;;;;30.17;41.14;99123.41;107317;1277;22547;-62
2022/07/06 08:58:37;;;;;;;5.30;3.70;;;;;;;30.22;40.96;99119.26;107281;1277;137727;-62
2022/07/06 09:01:04;;;;;;;13.80;5.20;;;;;;;30.26;41.41;99120.80;107488;1277;22630;-62
2022/07/06 09:03:31;;;;;;;14.00;10.50;;;;;;;30.31;40.15;99116.38;107448;1277;22482;-63
2022/07/06 09:05:59;;;;;;;11.80;10.40;;;;;;;30.36;40.79;99112.45;107408;1277;139289;-64
2022/07/06 09:08:30;;;;;;;7.60;5.30;;;;;;;30.40;40.72;99111.25;107368;1277;23035;-62
2022/07/06 09:10:57;;;;;;;11.70;4.10;;;;;;;30.42;40.35;99106.27;107401;1278;138626;-63
2022/07/06 09:13:24;;;;;;;6.80;3.80;;;;;;;30.48;40.19;99107.86;107525;1277;22384;-62
2022/07/06 09:15:51;;;;;;;7.60;3.90;;;;;;;30.54;39.43;99107.73;107581;1277;23129;-63
2022/07/06 09:18:36;;;;;;;7.30;4.00;;;;;;;30.59;39.54;99113.43;107182;1277;138957;-62
2022/07/06 09:21:03;;;;;;;5.00;3.90;;;;;;;30.64;38.97;99108.70;107213;1280;22395;-62
2022/07/06 09:23:31;;;;;;;3.80;3.40;;;;;;;30.67;38.22;99100.91;107060;1277;138954;-62
2022/07/06 09:25:58;;;;;;;4.30;3.90;;;;;;;30.72;38.40;99098.73;107263;1277;23607;-54
2022/07/06 09:28:40;;;;;;;5.80;4.40;;;;;;;30.77;38.29;99097.83;107371;1276;23280;-59
2022/07/06 09:31:07;;;;;;;7.30;4.70;;;;;;;30.80;37.96;99090.20;107159;1277;22414;-59
2022/07/06 09:34:01;;;;;;;6.90;4.10;;;;;;;30.82;38.52;99083.45;107240;1277;24546;-59
2022/07/06 09:36:42;;;;;;;6.80;4.70;;;;;;;30.84;37.45;99085.23;106984;1277;139362;-57
2022/07/06 09:39:22;;;;;;;5.30;4.00;;;;;;;30.86;36.77;99082.48;107030;1278;22549;-58
2022/07/06 09:41:51;;;;;;;7.20;4.30;;;;;;;30.89;37.56;99081.50;106930;1278;138976;-59
2022/07/06 09:44:24;;;;;;;58.50;51.00;;;;;;;30.90;37.04;99079.96;107107;1277;22584;-59
2022/07/06 09:46:51;;;;;;;11.10;9.10;;;;;;;30.92;37.08;99078.92;106763;1278;138855;-59
2022/07/06 09:49:21;;;;;;;9.10;5.40;;;;;;;30.95;36.75;99076.51;106974;1278;25045;-62
2022/07/06 09:51:50;;;;;;;6.60;5.20;;;;;;;30.99;35.43;99074.98;107247;1275;22423;-60
2022/07/06 09:54:17;;;;;;;4.80;4.30;;;;;;;31.06;35.79;99076.63;106830;1277;139100;-61
2022/07/06 09:56:47;;;;;;;11.10;4.40;;;;;;;31.11;34.66;99072.16;104880;1278;25336;-60
2022/07/06 09:59:15;;;;;;;8.50;4.70;;;;;;;31.14;35.14;99070.14;103456;1278;137778;-60
2022/07/06 10:01:42;;;;;;;8.00;4.60;;;;;;;31.19;35.44;99070.35;103735;1277;24063;-60
2022/07/06 10:04:12;;;;;;;6.70;5.40;;;;;;;31.21;35.54;99071.06;103849;1277;22671;-59
2022/07/06 10:06:40;;;;;;;7.70;5.20;;;;;;;31.24;35.02;99069.14;103534;1278;138853;-59
2022/07/06 10:09:08;;;;;;;6.20;5.00;;;;;;;31.26;35.24;99063.27;103843;1277;22737;-60
2022/07/06 10:11:48;;;;;;;6.30;5.20;;;;;;;31.32;34.68;99061.21;103647;1277;141854;-60
2022/07/06 10:14:18;;;;;;;6.00;4.90;;;;;;;31.38;34.34;99058.05;103673;1278;23444;-60
2022/07/06 10:16:45;;;;;;;7.20;4.60;;;;;;;31.44;33.63;99058.92;103637;1277;138984;-60
2022/07/06 10:19:13;;;;;;;5.00;4.50;;;;;;;31.48;33.46;99056.00;103970;1278;22600;-59
2022/07/06 10:21:40;;;;;;;6.10;5.40;;;;;;;31.52;32.96;99053.89;103943;1277;27559;-60
2022/07/06 10:24:08;;;;;;;9.80;5.60;;;;;;;31.50;32.67;99049.79;103660;1278;139342;-59
2022/07/06 10:26:35;;;;;;;8.60;5.00;;;;;;;31.49;32.97;99051.73;105221;1277;22590;-62
2022/07/06 10:29:03;;;;;;;6.90;5.20;;;;;;;31.50;33.57;99050.36;103718;1277;138867;-61
2022/07/06 10:31:31;;;;;;;11.70;6.40;;;;;;;31.48;33.88;99050.36;107216;1277;24119;-62
2022/07/06 10:33:59;;;;;;;11.00;5.60;;;;;;;31.44;33.90;99049.44;107152;1277;24000;-62
2022/07/06 10:36:26;;;;;;;7.90;5.50;;;;;;;31.39;34.04;99035.37;107146;1277;138385;-62
2022/07/06 10:38:53;;;;;;;13.90;5.70;;;;;;;31.36;34.00;99037.72;107065;1276;22396;-63
2022/07/06 10:41:31;;;;;;;14.70;5.50;;;;;;;31.31;33.71;99036.61;107082;1277;139050;-62
2022/07/06 10:43:58;;;;;;;6.60;6.00;;;;;;;31.24;34.01;99032.86;107310;1277;22429;-62
2022/07/06 10:46:28;;;;;;;6.40;5.50;;;;;;;31.22;34.22;99029.09;107086;1277;22607;-62
2022/07/06 10:48:55;;;;;;;7.00;6.20;;;;;;;31.17;34.55;99027.10;107093;1277;22538;-62
2022/07/06 10:51:28;;;;;;;8.30;4.80;;;;;;;31.12;34.78;99025.11;107081;1277;23300;-62
2022/07/06 10:54:01;;;;;;;6.70;5.40;;;;;;;31.10;35.52;99020.36;107005;1277;138541;-62
2022/07/06 10:56:48;;;;;;;8.50;5.00;;;;;;;31.08;35.72;99014.56;105513;1277;25234;-55
2022/07/06 10:59:22;;;;;;;6.40;5.40;;;;;;;31.07;35.65;99010.70;103805;1277;138235;-62
2022/07/06 11:02:11;;;;;;;8.00;5.30;;;;;;;31.07;36.05;99010.70;103873;1277;24483;-62
2022/07/06 11:04:38;;;;;;;7.60;5.20;;;;;;;31.08;35.53;99002.66;103830;1276;138346;-62
2022/07/06 11:07:15;;;;;;;5.70;5.10;;;;;;;31.09;35.78;99001.53;103928;1277;25167;-61
2022/07/06 11:09:56;;;;;;;5.60;5.10;;;;;;;31.05;35.79;98988.11;104061;1277;22617;-62
2022/07/06 11:12:23;;;;;;;6.80;5.30;;;;;;;31.05;35.33;98984.01;103666;1277;137554;-62
2022/07/06 11:14:51;;;;;;;6.50;5.10;;;;;;;31.09;34.85;98971.80;103882;1278;22582;-62
2022/07/06 11:17:18;;;;;;;12.90;6.80;;;;;;;31.19;35.07;98968.14;103841;1277;139400;-62
2022/07/06 11:19:55;;;;;;;11.40;5.30;;;;;;;31.28;34.23;98961.59;103936;1277;22589;-62
2022/07/06 11:22:24;;;;;;;7.20;5.00;;;;;;;31.38;34.77;98960.56;103995;1278;23504;-61
2022/07/06 11:24:55;;;;;;;12.00;5.30;;;;;;;31.48;34.06;98954.63;103922;1277;138049;-61
2022/07/06 11:27:22;;;;;;;7.00;4.90;;;;;;;31.57;34.29;98963.52;103874;1277;26545;-62
2022/07/06 11:29:49;;;;;;;5.70;5.20;;;;;;;31.63;34.51;98961.04;103861;1277;140235;-61
2022/07/06 11:32:16;;;;;;;7.70;5.50;;;;;;;31.71;34.63;98958.20;103895;1276;26054;-62